ESNK/KRF METAR and TAF weather

Enter ICAO airport designator
Station Type Date Time Source
ESNK METAR 2021/05/12 05:20 UTC NOAA

ESNK 120520Z AUTO 17003KT 9999 SCT053/// 11/10 Q1014


Station Type Date Time Source
ESNK Decoded METAR 2021/05/12 05:20 UTC NOAA

Kramfors Flygplats, Sweden (ESNK) 63-03N 017-46E 19M
May 12, 2021 - 01:20 AM EDT / 2021.05.12 0520 UTC
Wind: from the S (170 degrees) at 3 MPH (3 KT):0
Visibility: greater than 7 mile(s):0
Sky conditions: partly cloudy
Temperature: 51 F (11 C)
Dew Point: 50 F (10 C)
Relative Humidity: 93%
Pressure (altimeter): 29.94 in. Hg (1014 hPa)
ob: ESNK 120520Z AUTO 17003KT 9999 SCT053/// 11/10 Q1014
cycle: 5

Station Type Date Time Source
ESNK TAF 2017/12/15 06:00 UTC NOAA

TAF
AMD ESNK 150654Z 1506/1521 35005KT 6000 -SN BKN016
TEMPO 1506/1521 2000 SN SG VV009

Example: see airport list